createdAt,value
2017-10-19T00:00:07.731Z,10.90
2017-10-19T00:01:10.321Z,10.90
2017-10-19T00:02:12.814Z,10.90
2017-10-19T00:03:15.279Z,10.90
2017-10-19T00:04:18.680Z,10.80
2017-10-19T00:05:21.177Z,10.80
2017-10-19T00:06:23.648Z,10.80
2017-10-19T00:07:26.879Z,10.80
2017-10-19T00:08:29.330Z,10.80
2017-10-19T00:09:31.802Z,10.80
2017-10-19T00:10:34.306Z,10.80
2017-10-19T00:11:36.786Z,10.80
2017-10-19T00:12:40.022Z,10.80
2017-10-19T00:13:43.261Z,10.80
2017-10-19T00:14:45.722Z,10.80
2017-10-19T00:15:48.202Z,10.80
2017-10-19T00:16:50.779Z,10.70
2017-10-19T00:17:53.284Z,10.70
2017-10-19T00:18:55.812Z,10.70
2017-10-19T00:19:58.346Z,10.70
2017-10-19T00:21:00.830Z,10.70
2017-10-19T00:22:03.303Z,10.70
2017-10-19T00:23:05.812Z,10.70
2017-10-19T00:24:08.911Z,10.70
2017-10-19T00:25:11.387Z,10.70
2017-10-19T00:26:13.853Z,10.70
2017-10-19T00:27:16.314Z,10.80
2017-10-19T00:28:19.611Z,10.80
2017-10-19T00:29:22.087Z,10.70
2017-10-19T00:30:25.311Z,10.80
2017-10-19T00:31:27.786Z,10.70
2017-10-19T00:32:30.243Z,10.80
2017-10-19T00:33:32.724Z,10.80
2017-10-19T00:34:35.228Z,10.80
2017-10-19T00:35:38.482Z,10.80
2017-10-19T00:36:41.237Z,10.80
2017-10-19T00:37:43.694Z,10.80
2017-10-19T00:38:46.263Z,10.80
2017-10-19T00:39:48.801Z,10.80
2017-10-19T00:40:51.290Z,10.70
2017-10-19T00:41:54.551Z,10.80
2017-10-19T00:42:57.782Z,10.80
2017-10-19T00:44:01.150Z,10.80
2017-10-19T00:45:03.611Z,10.80
2017-10-19T00:46:06.067Z,10.80
2017-10-19T00:47:08.550Z,10.80
2017-10-19T00:48:11.025Z,10.80
2017-10-19T00:49:14.279Z,10.70
2017-10-19T00:50:17.538Z,10.70
2017-10-19T00:51:20.018Z,10.70
2017-10-19T00:52:22.458Z,10.70
2017-10-19T00:53:25.698Z,10.70
2017-10-19T00:54:28.946Z,10.70
2017-10-19T00:55:32.187Z,10.70
2017-10-19T00:56:35.422Z,10.70
2017-10-19T00:57:38.650Z,10.70
2017-10-19T00:58:41.215Z,10.70
2017-10-19T00:59:43.687Z,10.70
2017-10-19T01:00:46.270Z,10.70
2017-10-19T01:01:48.744Z,10.60
2017-10-19T01:02:51.313Z,10.60
2017-10-19T01:03:54.540Z,10.60
2017-10-19T01:04:57.800Z,10.60
2017-10-19T01:06:01.146Z,10.60
2017-10-19T01:07:03.620Z,10.60
2017-10-19T01:08:06.106Z,10.60
2017-10-19T01:09:08.576Z,10.60
2017-10-19T01:10:11.049Z,10.60
2017-10-19T01:11:13.529Z,10.60
2017-10-19T01:12:16.096Z,10.60
2017-10-19T01:13:18.602Z,10.60
2017-10-19T01:14:21.053Z,10.60
2017-10-19T01:15:23.526Z,10.60
2017-10-19T01:16:26.007Z,10.50
2017-10-19T01:17:28.517Z,10.50
2017-10-19T01:18:30.981Z,10.50
2017-10-19T01:19:33.447Z,10.50
2017-10-19T01:20:36.714Z,10.50
2017-10-19T01:21:39.185Z,10.50
2017-10-19T01:22:41.677Z,10.50
2017-10-19T01:23:44.146Z,10.50
2017-10-19T01:24:46.618Z,10.50
2017-10-19T01:25:49.156Z,10.50
2017-10-19T01:26:51.633Z,10.50
2017-10-19T01:27:54.101Z,10.50
2017-10-19T01:28:56.573Z,10.40
2017-10-19T01:29:59.044Z,10.40
2017-10-19T01:31:01.535Z,10.40
2017-10-19T01:32:03.990Z,10.40
2017-10-19T01:33:06.454Z,10.40
2017-10-19T01:34:08.948Z,10.40
2017-10-19T01:35:11.462Z,10.40
2017-10-19T01:36:14.026Z,10.40
2017-10-19T01:37:16.581Z,10.40
2017-10-19T01:38:19.057Z,10.40
2017-10-19T01:39:21.621Z,10.40
2017-10-19T01:40:24.093Z,10.40
2017-10-19T01:41:27.316Z,10.40
2017-10-19T01:42:30.554Z,10.30
2017-10-19T01:43:33.019Z,10.30
2017-10-19T01:44:35.501Z,10.30
2017-10-19T01:45:38.775Z,10.30
2017-10-19T01:46:41.302Z,10.30
2017-10-19T01:47:43.781Z,10.30
2017-10-19T01:48:46.242Z,10.30
2017-10-19T01:49:59.192Z,10.30
2017-10-19T01:51:02.460Z,10.30
2017-10-19T01:52:04.930Z,10.30
2017-10-19T01:53:07.405Z,10.30
2017-10-19T01:54:09.871Z,10.30
2017-10-19T01:55:12.335Z,10.30
2017-10-19T01:56:15.582Z,10.30
2017-10-19T01:57:18.824Z,10.30
2017-10-19T01:58:22.067Z,10.30
2017-10-19T01:59:25.311Z,10.30
2017-10-19T02:00:28.546Z,10.20
2017-10-19T02:01:31.910Z,10.30
2017-10-19T02:02:34.373Z,10.20
2017-10-19T02:03:36.839Z,10.30
2017-10-19T02:04:40.146Z,10.30
2017-10-19T02:05:42.610Z,10.30
2017-10-19T02:06:45.975Z,10.30
2017-10-19T02:07:48.438Z,10.20
2017-10-19T02:08:50.913Z,10.30
2017-10-19T02:09:53.390Z,10.30
2017-10-19T02:10:55.918Z,10.30
2017-10-19T02:11:58.379Z,10.30
2017-10-19T02:13:01.626Z,10.30
2017-10-19T02:14:04.874Z,10.30
2017-10-19T02:15:07.451Z,10.20
2017-10-19T02:16:09.926Z,10.30
2017-10-19T02:17:13.183Z,10.20
2017-10-19T02:18:15.664Z,10.20
2017-10-19T02:19:18.237Z,10.20
2017-10-19T02:20:20.735Z,10.20
2017-10-19T02:21:23.974Z,10.20
2017-10-19T02:22:27.314Z,10.20
2017-10-19T02:23:30.529Z,10.20
2017-10-19T02:24:33.010Z,10.20
2017-10-19T02:25:35.493Z,10.20
2017-10-19T02:26:37.967Z,10.20
2017-10-19T02:27:40.430Z,10.20
2017-10-19T02:28:42.909Z,10.20
2017-10-19T02:29:45.393Z,10.20
2017-10-19T02:30:47.878Z,10.20
2017-10-19T02:31:50.396Z,10.20
2017-10-19T02:32:53.654Z,10.20
2017-10-19T02:33:56.256Z,10.10
2017-10-19T02:34:58.731Z,10.20
2017-10-19T02:36:01.223Z,10.10
2017-10-19T02:37:03.712Z,10.10
2017-10-19T02:38:06.941Z,10.10
2017-10-19T02:39:10.170Z,10.10
2017-10-19T02:40:12.635Z,10.10
2017-10-19T02:41:15.947Z,10.10
2017-10-19T02:42:19.177Z,10.10
2017-10-19T02:43:21.708Z,10.00
2017-10-19T02:44:24.178Z,10.10
2017-10-19T02:45:26.651Z,10.10
2017-10-19T02:46:29.224Z,10.10
2017-10-19T02:47:31.749Z,10.10
2017-10-19T02:48:35.093Z,10.10
2017-10-19T02:49:37.556Z,10.10
2017-10-19T02:50:40.026Z,10.10
2017-10-19T02:51:43.246Z,10.10
2017-10-19T02:52:45.732Z,10.00
2017-10-19T02:53:48.230Z,10.00
2017-10-19T02:54:51.467Z,10.00
2017-10-19T02:55:54.003Z,10.00
2017-10-19T02:56:56.463Z,10.00
2017-10-19T02:57:58.955Z,10.00
2017-10-19T02:59:01.450Z,10.00
2017-10-19T03:00:04.669Z,10.00
2017-10-19T03:01:07.131Z,10.00
2017-10-19T03:02:10.374Z,10.00
2017-10-19T03:03:13.605Z,10.00
2017-10-19T03:04:16.092Z,9.90
2017-10-19T03:05:18.582Z,9.90
2017-10-19T03:06:21.198Z,9.90
2017-10-19T03:07:24.426Z,9.90
2017-10-19T03:08:27.689Z,9.90
2017-10-19T03:09:30.915Z,9.90
2017-10-19T03:10:34.157Z,9.90
2017-10-19T03:11:37.413Z,9.90
2017-10-19T03:12:39.930Z,9.90
2017-10-19T03:13:43.158Z,9.90
2017-10-19T03:14:46.408Z,9.90
2017-10-19T03:15:49.630Z,9.90
2017-10-19T03:16:52.191Z,9.80
2017-10-19T03:17:55.450Z,9.80
2017-10-19T03:18:57.924Z,9.80
2017-10-19T03:20:00.389Z,9.90
2017-10-19T03:21:02.850Z,9.90
2017-10-19T03:22:05.326Z,9.90
2017-10-19T03:23:08.600Z,9.90
2017-10-19T03:24:11.066Z,9.90
2017-10-19T03:25:13.527Z,9.90
2017-10-19T03:26:15.994Z,9.80
2017-10-19T03:27:18.459Z,9.80
2017-10-19T03:28:21.733Z,9.90
2017-10-19T03:29:24.208Z,9.80
2017-10-19T03:30:26.766Z,9.90
2017-10-19T03:31:29.238Z,9.90
2017-10-19T03:32:31.772Z,9.90
2017-10-19T03:33:34.251Z,9.90
2017-10-19T03:34:36.739Z,9.90
2017-10-19T03:35:39.999Z,9.80
2017-10-19T03:36:43.222Z,9.80
2017-10-19T03:37:45.703Z,9.70
2017-10-19T03:38:48.169Z,9.70
2017-10-19T03:39:50.730Z,9.70
2017-10-19T03:40:53.968Z,9.70
2017-10-19T03:41:56.446Z,9.70
2017-10-19T03:42:58.926Z,9.70
2017-10-19T03:44:01.405Z,9.70
2017-10-19T03:45:03.870Z,9.60
2017-10-19T03:46:06.346Z,9.60
2017-10-19T03:47:08.803Z,9.60
2017-10-19T03:48:12.061Z,9.60
2017-10-19T03:49:15.294Z,9.60
2017-10-19T03:50:18.530Z,9.60
2017-10-19T03:51:21.788Z,9.60
2017-10-19T03:52:24.260Z,9.50
2017-10-19T03:53:26.786Z,9.60
2017-10-19T03:54:29.250Z,9.60
2017-10-19T03:55:32.483Z,9.60
2017-10-19T03:56:34.948Z,9.50
2017-10-19T03:57:37.459Z,9.50
2017-10-19T03:58:40.894Z,9.50
2017-10-19T03:59:44.130Z,9.50
2017-10-19T04:00:47.378Z,9.50
2017-10-19T04:01:50.681Z,9.50
2017-10-19T04:02:53.191Z,9.40
2017-10-19T04:03:55.679Z,9.50
2017-10-19T04:04:58.152Z,9.40
2017-10-19T04:06:00.619Z,9.40
2017-10-19T04:07:03.869Z,9.40
2017-10-19T04:08:06.324Z,9.40
2017-10-19T04:09:08.814Z,9.40
2017-10-19T04:10:12.047Z,9.40
2017-10-19T04:11:15.277Z,9.40
2017-10-19T04:12:17.789Z,9.40
2017-10-19T04:13:20.242Z,9.40
2017-10-19T04:14:23.483Z,9.30
2017-10-19T04:15:26.701Z,9.30
2017-10-19T04:16:29.274Z,9.30
2017-10-19T04:17:31.759Z,9.30
2017-10-19T04:18:34.243Z,9.30
2017-10-19T04:19:36.699Z,9.30
2017-10-19T04:20:39.288Z,9.30
2017-10-19T04:21:41.751Z,9.30
2017-10-19T04:22:44.218Z,9.30
2017-10-19T04:23:47.464Z,9.30
2017-10-19T04:24:49.920Z,9.30
2017-10-19T04:25:52.385Z,9.30
2017-10-19T04:26:54.838Z,9.30
2017-10-19T04:27:57.313Z,9.30
2017-10-19T04:28:59.797Z,9.30
2017-10-19T04:30:02.255Z,9.30
2017-10-19T04:31:04.733Z,9.30
2017-10-19T04:32:07.212Z,9.30
2017-10-19T04:33:09.685Z,9.30
2017-10-19T04:34:12.161Z,9.30
2017-10-19T04:35:14.637Z,9.20
2017-10-19T04:36:17.100Z,9.20
2017-10-19T04:37:19.571Z,9.20
2017-10-19T04:38:22.813Z,9.20
2017-10-19T04:39:26.060Z,9.20
2017-10-19T04:40:29.313Z,9.20
2017-10-19T04:41:31.829Z,9.20
2017-10-19T04:42:35.079Z,9.20
2017-10-19T04:43:37.543Z,9.20
2017-10-19T04:44:40.022Z,9.20
2017-10-19T04:45:42.537Z,9.20
2017-10-19T04:46:45.785Z,9.20
2017-10-19T04:47:49.021Z,9.20
2017-10-19T04:48:52.533Z,9.20
2017-10-19T04:49:55.467Z,9.20
2017-10-19T04:50:57.972Z,9.20
2017-10-19T04:52:00.427Z,9.20
2017-10-19T04:53:02.882Z,9.20
2017-10-19T04:54:06.121Z,9.20
2017-10-19T04:55:09.346Z,9.20
2017-10-19T04:56:11.854Z,9.10
2017-10-19T04:57:14.309Z,9.10
2017-10-19T04:58:17.530Z,9.10
2017-10-19T04:59:20.022Z,9.10
2017-10-19T05:00:22.478Z,9.10
2017-10-19T05:01:24.965Z,9.10
2017-10-19T05:02:27.490Z,9.10
2017-10-19T05:03:29.954Z,9.10
2017-10-19T05:04:32.421Z,9.10
2017-10-19T05:05:34.893Z,9.10
2017-10-19T05:06:37.383Z,9.10
2017-10-19T05:07:39.848Z,9.10
2017-10-19T05:08:42.302Z,9.20
2017-10-19T05:09:45.555Z,9.40
2017-10-19T05:10:48.787Z,9.40
2017-10-19T05:11:52.011Z,9.40
2017-10-19T05:12:54.495Z,9.40
2017-10-19T05:13:56.942Z,9.40
2017-10-19T05:14:59.441Z,9.30
2017-10-19T05:16:01.918Z,9.30
2017-10-19T05:17:04.382Z,9.40
2017-10-19T05:18:07.214Z,9.50
2017-10-19T05:19:09.687Z,9.50
2017-10-19T05:20:12.146Z,9.40
2017-10-19T05:21:15.379Z,9.40
2017-10-19T05:22:18.610Z,9.40
2017-10-19T05:23:21.871Z,9.40
2017-10-19T05:24:25.101Z,9.40
2017-10-19T05:25:28.365Z,9.40
2017-10-19T05:26:30.873Z,9.40
2017-10-19T05:27:34.114Z,9.40
2017-10-19T05:28:37.382Z,9.40
2017-10-19T05:29:39.848Z,9.30
2017-10-19T05:30:42.305Z,9.40
2017-10-19T05:31:45.673Z,9.40
2017-10-19T05:32:48.121Z,9.30
2017-10-19T05:33:50.582Z,9.40
2017-10-19T05:34:53.148Z,9.40
2017-10-19T05:35:55.616Z,9.40
2017-10-19T05:36:58.497Z,9.50
2017-10-19T05:38:01.039Z,9.50
2017-10-19T05:39:03.528Z,9.50
2017-10-19T05:40:06.801Z,9.50
2017-10-19T05:41:09.274Z,9.50
2017-10-19T05:42:11.780Z,9.60
2017-10-19T05:43:14.238Z,9.60
2017-10-19T05:44:16.708Z,9.60
2017-10-19T05:45:19.183Z,9.60
2017-10-19T05:46:21.645Z,9.60
2017-10-19T05:47:24.140Z,9.60
2017-10-19T05:48:26.582Z,9.60
2017-10-19T05:49:29.807Z,9.60
2017-10-19T05:50:33.041Z,9.70
2017-10-19T05:51:35.599Z,9.60
2017-10-19T05:52:38.073Z,9.70
2017-10-19T05:53:42.278Z,9.60
2017-10-19T05:54:45.588Z,9.60
2017-10-19T05:55:48.044Z,9.50
2017-10-19T05:56:51.257Z,9.50
2017-10-19T05:57:53.735Z,9.50
2017-10-19T05:58:56.575Z,9.50
2017-10-19T05:59:59.088Z,9.50
2017-10-19T06:01:01.826Z,9.50
2017-10-19T06:02:04.333Z,9.50
2017-10-19T06:03:07.640Z,9.50
2017-10-19T06:04:10.112Z,9.50
2017-10-19T06:05:12.599Z,9.40
2017-10-19T06:06:15.195Z,9.50
2017-10-19T06:07:17.687Z,9.40
2017-10-19T06:08:20.923Z,9.40
2017-10-19T06:09:23.455Z,9.40
2017-10-19T06:10:25.954Z,9.30
2017-10-19T06:11:28.418Z,9.40
2017-10-19T06:12:30.891Z,9.40
2017-10-19T06:13:33.391Z,9.40
2017-10-19T06:14:35.882Z,9.40
2017-10-19T06:15:39.138Z,9.30
2017-10-19T06:16:41.653Z,9.30
2017-10-19T06:17:44.137Z,9.40
2017-10-19T06:18:46.605Z,9.40
2017-10-19T06:19:49.523Z,9.30
2017-10-19T06:20:52.798Z,9.40
2017-10-19T06:21:55.303Z,9.40
2017-10-19T06:22:57.794Z,9.40
2017-10-19T06:24:00.393Z,9.50
2017-10-19T06:25:02.879Z,9.50
2017-10-19T06:26:05.434Z,9.50
2017-10-19T06:27:07.959Z,9.50
2017-10-19T06:28:10.456Z,9.50
2017-10-19T06:29:12.993Z,9.50
2017-10-19T06:30:15.455Z,9.50
2017-10-19T06:31:18.038Z,9.50
2017-10-19T06:32:21.480Z,9.60
2017-10-19T06:33:25.779Z,9.60
2017-10-19T06:34:28.580Z,9.50
2017-10-19T06:35:31.455Z,9.60
2017-10-19T06:36:33.967Z,9.60
2017-10-19T06:37:36.431Z,9.60
2017-10-19T06:38:38.905Z,9.60
2017-10-19T06:39:41.644Z,9.60
2017-10-19T06:41:56.667Z,9.60
2017-10-19T06:42:59.182Z,9.60
2017-10-19T06:44:01.651Z,9.60
2017-10-19T06:45:04.126Z,9.60
2017-10-19T06:46:06.724Z,9.70
2017-10-19T06:47:09.219Z,9.70
2017-10-19T06:48:12.445Z,9.70
2017-10-19T06:49:14.936Z,9.70
2017-10-19T06:50:17.406Z,9.80
2017-10-19T06:51:20.672Z,9.90
2017-10-19T06:52:23.152Z,9.90
2017-10-19T06:53:25.616Z,9.90
2017-10-19T06:54:28.107Z,10.00
2017-10-19T06:55:30.565Z,10.00
2017-10-19T06:56:33.064Z,10.00
2017-10-19T06:57:35.515Z,10.10
2017-10-19T06:58:38.016Z,10.10
2017-10-19T06:59:40.502Z,10.10
2017-10-19T07:00:42.970Z,10.00
2017-10-19T07:01:46.198Z,10.00
2017-10-19T07:02:48.666Z,10.00
2017-10-19T07:03:51.150Z,10.00
2017-10-19T07:04:54.400Z,10.10
2017-10-19T07:05:57.629Z,10.10
2017-10-19T07:07:00.138Z,10.10
2017-10-19T07:08:02.626Z,10.20
2017-10-19T07:09:05.094Z,10.20
2017-10-19T07:10:07.549Z,10.20
2017-10-19T07:11:10.767Z,10.20
2017-10-19T07:12:13.231Z,10.20
2017-10-19T07:13:15.714Z,10.20
2017-10-19T07:14:18.185Z,10.20
2017-10-19T07:15:20.647Z,10.30
2017-10-19T07:16:23.146Z,10.30
2017-10-19T07:17:25.630Z,10.30
2017-10-19T07:18:28.854Z,10.20
2017-10-19T07:19:31.322Z,10.20
2017-10-19T07:20:33.817Z,10.20
2017-10-19T07:21:37.074Z,10.40
2017-10-19T07:22:40.297Z,10.40
2017-10-19T07:23:42.758Z,10.40
2017-10-19T07:24:45.277Z,10.40
2017-10-19T07:25:48.374Z,10.40
2017-10-19T07:26:50.874Z,10.50
2017-10-19T07:27:53.333Z,10.50
2017-10-19T07:28:55.846Z,10.50
2017-10-19T07:29:58.421Z,10.60
2017-10-19T07:31:00.946Z,10.70
2017-10-19T07:32:03.468Z,10.70
2017-10-19T07:33:05.926Z,10.70
2017-10-19T07:34:08.409Z,10.70
2017-10-19T07:35:11.634Z,10.70
2017-10-19T07:36:14.971Z,10.70
2017-10-19T07:37:17.434Z,10.70
2017-10-19T07:38:19.905Z,10.80
2017-10-19T07:39:22.393Z,10.80
2017-10-19T07:40:24.879Z,10.70
2017-10-19T07:41:28.157Z,10.60
2017-10-19T07:42:30.622Z,10.60
2017-10-19T07:43:33.112Z,10.60
2017-10-19T07:44:35.631Z,10.60
2017-10-19T07:45:38.103Z,10.60
2017-10-19T07:46:40.589Z,10.60
2017-10-19T07:47:43.070Z,10.60
2017-10-19T07:48:45.541Z,10.60
2017-10-19T07:49:48.037Z,10.50
2017-10-19T07:50:51.266Z,10.60
2017-10-19T07:51:54.494Z,10.50
2017-10-19T07:52:56.962Z,10.60
2017-10-19T07:53:59.426Z,10.60
2017-10-19T07:55:01.925Z,10.60
2017-10-19T07:56:04.405Z,10.70
2017-10-19T07:57:07.765Z,10.70
2017-10-19T07:58:11.006Z,10.70
2017-10-19T07:59:14.469Z,10.80
2017-10-19T08:00:16.978Z,10.80
2017-10-19T08:01:20.234Z,10.90
2017-10-19T08:02:22.738Z,10.90
2017-10-19T08:03:25.187Z,10.80
2017-10-19T08:04:27.671Z,10.80
2017-10-19T08:05:30.144Z,10.70
2017-10-19T08:06:32.609Z,10.70
2017-10-19T08:07:35.069Z,10.70
2017-10-19T08:08:38.286Z,10.80
2017-10-19T08:09:40.804Z,10.80
2017-10-19T08:10:43.279Z,10.80
2017-10-19T08:11:45.751Z,10.90
2017-10-19T08:12:48.202Z,10.90
2017-10-19T08:13:51.458Z,11.00
2017-10-19T08:14:54.692Z,11.00
2017-10-19T08:15:57.981Z,11.10
2017-10-19T08:17:00.463Z,11.10
2017-10-19T08:18:03.709Z,11.20
2017-10-19T08:19:06.954Z,11.10
2017-10-19T08:20:10.193Z,11.20
2017-10-19T08:21:13.419Z,11.10
2017-10-19T08:22:16.682Z,11.10
2017-10-19T08:23:19.922Z,11.20
2017-10-19T08:24:23.150Z,11.20
2017-10-19T08:25:26.377Z,11.30
2017-10-19T08:26:28.859Z,11.20
2017-10-19T08:27:31.374Z,11.30
2017-10-19T08:28:33.852Z,11.40
2017-10-19T08:29:36.350Z,11.40
2017-10-19T08:30:38.815Z,11.40
2017-10-19T08:31:42.042Z,11.50
2017-10-19T08:32:44.611Z,11.50
2017-10-19T08:33:47.090Z,11.60
2017-10-19T08:34:49.578Z,11.60
2017-10-19T08:35:52.042Z,11.60
2017-10-19T08:36:54.506Z,11.70
2017-10-19T08:37:56.980Z,11.70
2017-10-19T08:38:59.450Z,11.70
2017-10-19T08:40:02.695Z,11.70
2017-10-19T08:41:05.194Z,11.70
2017-10-19T08:42:07.653Z,11.70
2017-10-19T08:43:10.118Z,11.80
2017-10-19T08:44:12.593Z,11.90
2017-10-19T08:45:15.842Z,12.00
2017-10-19T08:46:18.316Z,11.90
2017-10-19T08:47:20.793Z,11.90
2017-10-19T08:48:23.259Z,11.90
2017-10-19T08:49:25.720Z,12.00
2017-10-19T08:50:31.523Z,12.10
2017-10-19T08:51:34.761Z,12.10
2017-10-19T08:52:37.990Z,12.10
2017-10-19T08:53:40.495Z,12.10
2017-10-19T08:54:42.950Z,12.20
2017-10-19T08:55:46.202Z,12.30
2017-10-19T08:56:49.418Z,12.30
2017-10-19T08:57:51.882Z,12.30
2017-10-19T08:58:54.415Z,12.30
2017-10-19T08:59:56.891Z,12.30
2017-10-19T09:00:59.370Z,12.30
2017-10-19T09:02:04.524Z,12.40
2017-10-19T09:03:07.766Z,12.40
2017-10-19T09:04:11.028Z,12.40
2017-10-19T09:05:13.499Z,12.40
2017-10-19T09:06:15.978Z,12.40
2017-10-19T09:07:18.438Z,12.30
2017-10-19T09:08:20.906Z,12.30
2017-10-19T09:09:24.145Z,12.30
2017-10-19T09:10:27.382Z,12.30
2017-10-19T09:11:29.857Z,12.30
2017-10-19T09:12:32.334Z,12.30
2017-10-19T09:13:34.798Z,12.40
2017-10-19T09:14:37.271Z,12.50
2017-10-19T09:15:39.736Z,12.50
2017-10-19T09:16:42.203Z,12.40
2017-10-19T09:17:44.659Z,12.30
2017-10-19T09:18:47.909Z,12.40
2017-10-19T09:19:51.153Z,12.40
2017-10-19T09:20:54.399Z,12.40
2017-10-19T09:21:57.699Z,12.50
2017-10-19T09:23:00.271Z,12.50
2017-10-19T09:24:02.770Z,12.50
2017-10-19T09:25:05.276Z,12.60
2017-10-19T09:26:07.726Z,12.60
2017-10-19T09:27:11.005Z,12.70
2017-10-19T09:28:14.007Z,12.60
2017-10-19T09:29:16.516Z,12.60
2017-10-19T09:30:18.988Z,12.60
2017-10-19T09:31:21.464Z,12.70
2017-10-19T09:32:23.937Z,12.60
2017-10-19T09:33:26.410Z,12.60
2017-10-19T09:34:28.906Z,12.60
2017-10-19T09:35:31.456Z,12.60
2017-10-19T09:36:33.909Z,12.60
2017-10-19T09:37:36.407Z,12.70
2017-10-19T09:38:38.907Z,12.80
2017-10-19T09:39:41.391Z,12.90
2017-10-19T09:40:43.854Z,12.90
2017-10-19T09:41:47.021Z,12.90
2017-10-19T09:42:49.506Z,12.90
2017-10-19T09:43:52.490Z,12.80
2017-10-19T09:44:54.931Z,12.80
2017-10-19T09:45:57.422Z,12.80
2017-10-19T09:46:59.919Z,12.90
2017-10-19T09:48:02.416Z,12.90
2017-10-19T09:49:05.646Z,12.90
2017-10-19T09:50:08.109Z,12.90
2017-10-19T09:51:10.590Z,12.90
2017-10-19T09:52:13.053Z,12.80
2017-10-19T09:53:15.562Z,12.80
2017-10-19T09:54:18.798Z,13.00
2017-10-19T09:55:22.030Z,13.00
2017-10-19T09:56:24.521Z,13.00
2017-10-19T09:57:26.985Z,13.00
2017-10-19T09:58:29.476Z,13.00
2017-10-19T09:59:31.955Z,13.00
2017-10-19T10:01:44.141Z,13.10
2017-10-19T10:02:46.610Z,13.10
2017-10-19T10:03:49.078Z,13.10
2017-10-19T10:04:51.558Z,13.10
2017-10-19T10:05:54.038Z,13.10
2017-10-19T10:06:56.562Z,13.00
2017-10-19T10:07:59.041Z,13.00
2017-10-19T10:09:01.497Z,13.00
2017-10-19T10:10:03.952Z,12.90
2017-10-19T10:11:07.194Z,12.80
2017-10-19T10:12:10.531Z,12.80
2017-10-19T10:13:12.990Z,12.80
2017-10-19T10:14:15.462Z,12.90
2017-10-19T10:15:17.962Z,12.90
2017-10-19T10:16:20.455Z,12.90
2017-10-19T10:17:23.680Z,12.90
2017-10-19T10:18:26.130Z,12.90
2017-10-19T10:19:28.602Z,12.90
2017-10-19T10:20:31.076Z,12.80
2017-10-19T10:21:33.526Z,12.80
2017-10-19T10:22:35.981Z,12.80
2017-10-19T10:23:38.446Z,12.90
2017-10-19T10:24:40.922Z,12.90
2017-10-19T10:25:43.446Z,12.90
2017-10-19T10:26:45.892Z,12.90
2017-10-19T10:27:48.365Z,12.90
2017-10-19T10:28:50.842Z,12.90
2017-10-19T10:29:53.343Z,13.00
2017-10-19T10:30:55.856Z,13.00
2017-10-19T10:31:58.321Z,13.10
2017-10-19T10:33:00.840Z,13.10
2017-10-19T10:34:03.306Z,13.10
2017-10-19T10:35:05.805Z,13.20
2017-10-19T10:36:09.150Z,13.40
2017-10-19T10:37:12.406Z,13.40
2017-10-19T10:38:15.630Z,13.40
2017-10-19T10:39:18.865Z,13.30
2017-10-19T10:40:21.412Z,13.30
2017-10-19T10:41:24.660Z,13.10
2017-10-19T10:42:27.190Z,13.10
2017-10-19T10:43:29.650Z,13.10
2017-10-19T10:44:32.131Z,13.10
2017-10-19T10:45:35.346Z,13.20
2017-10-19T10:46:38.726Z,13.20
2017-10-19T10:47:41.253Z,13.10
2017-10-19T10:48:44.498Z,13.20
2017-10-19T10:49:46.978Z,13.20
2017-10-19T10:50:49.462Z,13.20
2017-10-19T10:51:51.959Z,13.30
2017-10-19T10:52:55.210Z,13.30
2017-10-19T10:53:57.673Z,13.20
2017-10-19T10:55:00.147Z,13.10
2017-10-19T10:56:03.415Z,13.20
2017-10-19T10:57:05.930Z,13.20
2017-10-19T10:58:08.402Z,13.30
2017-10-19T10:59:10.893Z,13.30
2017-10-19T11:00:13.453Z,13.30
2017-10-19T11:01:15.915Z,13.20
2017-10-19T11:02:19.144Z,13.20
2017-10-19T11:03:21.601Z,13.20
2017-10-19T11:04:24.145Z,13.20
2017-10-19T11:05:26.721Z,13.30
2017-10-19T11:06:29.182Z,13.30
2017-10-19T11:07:31.650Z,13.30
2017-10-19T11:08:34.119Z,13.30
2017-10-19T11:09:36.621Z,13.10
2017-10-19T11:10:39.077Z,13.10
2017-10-19T11:11:41.536Z,13.20
2017-10-19T11:12:44.021Z,13.20
2017-10-19T11:13:47.260Z,13.10
2017-10-19T11:14:50.565Z,13.20
2017-10-19T11:15:53.048Z,13.20
2017-10-19T11:16:55.561Z,13.20
2017-10-19T11:17:58.037Z,13.30
2017-10-19T11:19:00.493Z,13.30
2017-10-19T11:20:03.748Z,13.10
2017-10-19T11:21:06.250Z,13.10
2017-10-19T11:22:08.757Z,13.10
2017-10-19T11:23:11.994Z,13.10
2017-10-19T11:24:14.487Z,13.10
2017-10-19T11:25:16.954Z,13.20
2017-10-19T11:26:19.425Z,13.30
2017-10-19T11:27:21.895Z,13.30
2017-10-19T11:28:24.411Z,13.30
2017-10-19T11:29:26.901Z,13.30
2017-10-19T11:30:29.418Z,13.40
2017-10-19T11:31:31.888Z,13.30
2017-10-19T11:32:34.389Z,13.30
2017-10-19T11:33:36.887Z,13.20
2017-10-19T11:34:40.193Z,13.30
2017-10-19T11:35:42.685Z,13.30
2017-10-19T11:36:45.186Z,13.40
2017-10-19T11:37:47.665Z,13.50
2017-10-19T11:38:50.173Z,13.50
2017-10-19T11:39:52.742Z,13.60
2017-10-19T11:40:55.236Z,13.70
2017-10-19T11:41:57.711Z,13.80
2017-10-19T11:43:00.965Z,13.80
2017-10-19T11:44:03.469Z,13.80
2017-10-19T11:45:06.736Z,13.90
2017-10-19T11:46:09.202Z,13.90
2017-10-19T11:47:11.699Z,13.90
2017-10-19T11:48:14.207Z,13.90
2017-10-19T11:49:16.679Z,13.90
2017-10-19T11:50:19.157Z,13.90
2017-10-19T11:51:22.094Z,13.90
2017-10-19T11:52:24.625Z,13.80
2017-10-19T11:53:27.151Z,13.90
2017-10-19T11:54:29.632Z,13.80
2017-10-19T11:55:32.106Z,13.90
2017-10-19T11:56:34.722Z,13.90
2017-10-19T11:57:37.198Z,13.90
2017-10-19T11:58:39.754Z,14.00
2017-10-19T11:59:43.045Z,13.80
2017-10-19T12:00:45.509Z,13.80
2017-10-19T12:01:48.015Z,13.70
2017-10-19T12:02:50.587Z,13.70
2017-10-19T12:03:53.107Z,13.70
2017-10-19T12:04:56.353Z,13.80
2017-10-19T12:05:59.619Z,13.80
2017-10-19T12:07:02.967Z,13.80
2017-10-19T12:08:05.495Z,13.80
2017-10-19T12:09:08.081Z,13.90
2017-10-19T12:10:11.356Z,13.90
2017-10-19T12:11:13.880Z,13.90
2017-10-19T12:12:16.338Z,13.90
2017-10-19T12:13:18.841Z,13.80
2017-10-19T12:14:21.337Z,13.80
2017-10-19T12:15:24.289Z,13.80
2017-10-19T12:16:26.845Z,13.70
2017-10-19T12:17:29.309Z,13.70
2017-10-19T12:18:32.591Z,13.70
2017-10-19T12:19:36.223Z,13.70
2017-10-19T12:20:38.913Z,13.70
2017-10-19T12:21:41.393Z,13.70
2017-10-19T12:22:43.851Z,13.70
2017-10-19T12:23:46.441Z,13.70
2017-10-19T12:24:48.950Z,13.70
2017-10-19T12:25:52.183Z,13.70
2017-10-19T12:26:55.464Z,13.70
2017-10-19T12:27:57.957Z,13.70
2017-10-19T12:29:01.206Z,13.60
2017-10-19T12:30:03.963Z,13.60
2017-10-19T12:31:06.479Z,13.70
2017-10-19T12:32:08.957Z,13.70
2017-10-19T12:33:11.546Z,13.80
2017-10-19T12:34:14.080Z,13.80
2017-10-19T12:35:16.591Z,13.80
2017-10-19T12:36:19.127Z,13.80
2017-10-19T12:37:21.638Z,13.90
2017-10-19T12:38:24.180Z,13.90
2017-10-19T12:39:26.665Z,13.90
2017-10-19T12:40:29.918Z,13.90
2017-10-19T12:41:32.458Z,13.80
2017-10-19T12:42:34.943Z,13.80
2017-10-19T12:43:37.498Z,13.90
2017-10-19T12:44:40.025Z,13.90
2017-10-19T12:45:42.570Z,13.80
2017-10-19T12:46:45.090Z,13.80
2017-10-19T12:47:47.558Z,13.90
2017-10-19T12:48:50.072Z,13.90
2017-10-19T12:49:52.580Z,14.00
2017-10-19T12:50:55.076Z,14.00
2017-10-19T12:51:57.557Z,14.10
2017-10-19T12:53:00.061Z,14.10
2017-10-19T12:54:02.588Z,14.20
2017-10-19T12:55:05.103Z,14.10
2017-10-19T12:56:07.607Z,14.10
2017-10-19T12:57:10.074Z,14.10
2017-10-19T12:58:12.560Z,14.10
2017-10-19T12:59:15.054Z,14.10
2017-10-19T13:00:18.331Z,14.10
2017-10-19T13:01:20.834Z,14.10
2017-10-19T13:02:24.084Z,14.10
2017-10-19T13:03:26.566Z,14.10
2017-10-19T13:04:29.126Z,14.10
2017-10-19T13:05:32.396Z,14.00
2017-10-19T13:06:34.882Z,14.00
2017-10-19T13:07:38.243Z,14.00
2017-10-19T13:08:40.777Z,13.90
2017-10-19T13:09:43.274Z,14.00
2017-10-19T13:10:46.509Z,14.10
2017-10-19T13:11:49.098Z,14.10
2017-10-19T13:12:51.698Z,14.10
2017-10-19T13:13:54.177Z,14.10
2017-10-19T13:14:56.656Z,14.10
2017-10-19T13:15:59.231Z,14.20
2017-10-19T13:17:01.729Z,14.10
2017-10-19T13:18:04.264Z,14.20
2017-10-19T13:19:06.746Z,14.10
2017-10-19T13:20:10.006Z,14.20
2017-10-19T13:21:12.482Z,14.20
2017-10-19T13:22:15.087Z,14.20
2017-10-19T13:23:17.596Z,14.20
2017-10-19T13:24:20.083Z,14.30
2017-10-19T13:25:23.346Z,14.20
2017-10-19T13:26:26.367Z,14.20
2017-10-19T13:27:29.659Z,14.10
2017-10-19T13:28:32.154Z,14.10
2017-10-19T13:29:34.648Z,14.10
2017-10-19T13:30:38.070Z,14.30
2017-10-19T13:31:40.576Z,14.30
2017-10-19T13:32:43.124Z,14.40
2017-10-19T13:33:45.594Z,14.40
2017-10-19T13:34:48.082Z,14.50
2017-10-19T13:35:50.547Z,14.60
2017-10-19T13:36:53.025Z,14.60